sensor_id;sensor_type;location;lat;lon;timestamp;pressure;altitude;pressure_sealevel;temperature;humidity
61805;BME280;47725;47.912;7.356;2022-10-24T00:02:53;98862.60;;;19.10;55.42
61805;BME280;47725;47.912;7.356;2022-10-24T00:06:53;98863.31;;;19.08;55.57
61805;BME280;47725;47.912;7.356;2022-10-24T00:10:53;98863.90;;;19.07;55.74
61805;BME280;47725;47.912;7.356;2022-10-24T00:14:53;98865.23;;;19.06;55.89
61805;BME280;47725;47.912;7.356;2022-10-24T00:18:53;98866.61;;;19.05;56.07
61805;BME280;47725;47.912;7.356;2022-10-24T00:22:53;98867.46;;;19.05;56.20
61805;BME280;47725;47.912;7.356;2022-10-24T00:26:53;98868.03;;;19.04;56.30
61805;BME280;47725;47.912;7.356;2022-10-24T00:30:53;98868.18;;;19.04;56.45
61805;BME280;47725;47.912;7.356;2022-10-24T00:34:53;98869.42;;;19.04;56.56
61805;BME280;47725;47.912;7.356;2022-10-24T00:38:53;98870.50;;;19.04;56.71
61805;BME280;47725;47.912;7.356;2022-10-24T00:42:53;98872.38;;;19.05;56.84
61805;BME280;47725;47.912;7.356;2022-10-24T00:50:55;98874.94;;;19.06;57.15
61805;BME280;47725;47.912;7.356;2022-10-24T00:54:53;98876.09;;;19.06;57.29
61805;BME280;47725;47.912;7.356;2022-10-24T00:58:53;98877.73;;;19.06;57.35
61805;BME280;47725;47.912;7.356;2022-10-24T01:02:53;98880.29;;;19.06;57.47
61805;BME280;47725;47.912;7.356;2022-10-24T01:11:15;98885.80;;;19.06;57.62
61805;BME280;47725;47.912;7.356;2022-10-24T01:19:12;98895.26;;;19.05;57.94
61805;BME280;47725;47.912;7.356;2022-10-24T01:26:57;98897.33;;;19.06;58.09
61805;BME280;47725;47.912;7.356;2022-10-24T01:30:59;98896.83;;;19.06;58.08
61805;BME280;47725;47.912;7.356;2022-10-24T01:38:54;98891.89;;;19.06;58.37
61805;BME280;47725;47.912;7.356;2022-10-24T01:42:53;98890.28;;;19.05;58.41
61805;BME280;47725;47.912;7.356;2022-10-24T01:47:02;98890.83;;;19.04;58.49
61805;BME280;47725;47.912;7.356;2022-10-24T01:50:53;98891.33;;;19.03;58.67
61805;BME280;47725;47.912;7.356;2022-10-24T01:54:53;98892.74;;;19.01;58.78
61805;BME280;47725;47.912;7.356;2022-10-24T01:59:02;98892.91;;;18.99;58.98
61805;BME280;47725;47.912;7.356;2022-10-24T02:02:54;98890.77;;;18.98;59.15
61805;BME280;47725;47.912;7.356;2022-10-24T02:06:53;98886.57;;;18.96;59.68
61805;BME280;47725;47.912;7.356;2022-10-24T02:10:54;98881.59;;;18.94;59.49
61805;BME280;47725;47.912;7.356;2022-10-24T02:15:02;98878.77;;;18.93;59.55
61805;BME280;47725;47.912;7.356;2022-10-24T02:18:53;98877.62;;;18.92;59.60
61805;BME280;47725;47.912;7.356;2022-10-24T02:22:58;98877.40;;;18.91;59.74
61805;BME280;47725;47.912;7.356;2022-10-24T02:31:00;98885.41;;;18.88;60.11
61805;BME280;47725;47.912;7.356;2022-10-24T02:34:53;98882.75;;;18.88;60.09
61805;BME280;47725;47.912;7.356;2022-10-24T02:38:53;98881.45;;;18.88;60.08
61805;BME280;47725;47.912;7.356;2022-10-24T02:42:54;98880.84;;;18.89;60.14
61805;BME280;47725;47.912;7.356;2022-10-24T02:46:53;98883.08;;;18.89;60.22
61805;BME280;47725;47.912;7.356;2022-10-24T02:50:53;98884.64;;;18.89;60.22
61805;BME280;47725;47.912;7.356;2022-10-24T02:54:53;98886.03;;;18.89;60.44
61805;BME280;47725;47.912;7.356;2022-10-24T02:58:53;98888.83;;;18.89;60.51
61805;BME280;47725;47.912;7.356;2022-10-24T03:02:53;98891.41;;;18.88;60.69
61805;BME280;47725;47.912;7.356;2022-10-24T03:06:53;98892.47;;;18.88;60.77
61805;BME280;47725;47.912;7.356;2022-10-24T03:10:53;98893.64;;;18.88;60.93
61805;BME280;47725;47.912;7.356;2022-10-24T03:14:53;98896.24;;;18.89;60.88
61805;BME280;47725;47.912;7.356;2022-10-24T03:18:53;98898.81;;;18.90;61.26
61805;BME280;47725;47.912;7.356;2022-10-24T03:22:53;98903.55;;;18.90;61.37
61805;BME280;47725;47.912;7.356;2022-10-24T03:26:53;98907.67;;;18.90;61.70
61805;BME280;47725;47.912;7.356;2022-10-24T03:30:53;98914.04;;;18.88;61.83
61805;BME280;47725;47.912;7.356;2022-10-24T03:34:53;98920.28;;;18.86;61.91
61805;BME280;47725;47.912;7.356;2022-10-24T03:38:53;98921.73;;;18.84;62.37
61805;BME280;47725;47.912;7.356;2022-10-24T03:42:53;98920.26;;;18.83;62.45
61805;BME280;47725;47.912;7.356;2022-10-24T03:46:53;98919.47;;;18.82;62.86
61805;BME280;47725;47.912;7.356;2022-10-24T03:50:53;98919.61;;;18.81;62.77
61805;BME280;47725;47.912;7.356;2022-10-24T03:54:53;98919.55;;;18.80;62.73
61805;BME280;47725;47.912;7.356;2022-10-24T03:58:53;98917.41;;;18.79;62.97
61805;BME280;47725;47.912;7.356;2022-10-24T04:02:53;98916.72;;;18.78;62.99
61805;BME280;47725;47.912;7.356;2022-10-24T04:06:53;98916.88;;;18.78;63.07
61805;BME280;47725;47.912;7.356;2022-10-24T04:10:53;98916.00;;;18.78;63.13
61805;BME280;47725;47.912;7.356;2022-10-24T04:14:53;98915.73;;;18.79;62.98
61805;BME280;47725;47.912;7.356;2022-10-24T04:18:53;98916.91;;;18.80;62.89
61805;BME280;47725;47.912;7.356;2022-10-24T04:22:53;98919.89;;;18.80;62.92
61805;BME280;47725;47.912;7.356;2022-10-24T04:26:53;98921.73;;;18.81;63.02
61805;BME280;47725;47.912;7.356;2022-10-24T04:30:53;98925.87;;;18.80;63.38
61805;BME280;47725;47.912;7.356;2022-10-24T04:34:53;98930.58;;;18.77;63.67
61805;BME280;47725;47.912;7.356;2022-10-24T04:38:53;98936.11;;;18.76;63.34
61805;BME280;47725;47.912;7.356;2022-10-24T04:42:53;98940.03;;;18.76;63.33
61805;BME280;47725;47.912;7.356;2022-10-24T04:46:53;98941.27;;;18.77;63.53
61805;BME280;47725;47.912;7.356;2022-10-24T04:50:53;98940.95;;;18.77;63.49
61805;BME280;47725;47.912;7.356;2022-10-24T04:54:53;98940.62;;;18.79;63.33
61805;BME280;47725;47.912;7.356;2022-10-24T04:58:53;98942.52;;;18.79;63.68
61805;BME280;47725;47.912;7.356;2022-10-24T05:02:53;98943.08;;;18.77;64.03
61805;BME280;47725;47.912;7.356;2022-10-24T05:06:53;98942.83;;;18.73;64.31
61805;BME280;47725;47.912;7.356;2022-10-24T05:10:53;98942.35;;;18.69;64.34
61805;BME280;47725;47.912;7.356;2022-10-24T05:14:53;98943.28;;;18.65;64.44
61805;BME280;47725;47.912;7.356;2022-10-24T05:18:53;98940.72;;;18.63;64.18
61805;BME280;47725;47.912;7.356;2022-10-24T05:22:53;98932.62;;;18.64;64.12
61805;BME280;47725;47.912;7.356;2022-10-24T05:26:53;98932.08;;;18.64;64.22
61805;BME280;47725;47.912;7.356;2022-10-24T05:30:53;98930.10;;;18.66;64.39
61805;BME280;47725;47.912;7.356;2022-10-24T05:34:53;98925.22;;;18.67;64.23
61805;BME280;47725;47.912;7.356;2022-10-24T05:38:53;98921.04;;;18.67;64.25
61805;BME280;47725;47.912;7.356;2022-10-24T05:42:53;98918.58;;;18.67;64.24
61805;BME280;47725;47.912;7.356;2022-10-24T05:46:53;98915.69;;;18.67;64.48
61805;BME280;47725;47.912;7.356;2022-10-24T05:50:56;98912.50;;;18.66;64.34
61805;BME280;47725;47.912;7.356;2022-10-24T05:54:53;98910.49;;;18.65;64.46
61805;BME280;47725;47.912;7.356;2022-10-24T05:58:54;98910.46;;;18.63;64.47
61805;BME280;47725;47.912;7.356;2022-10-24T06:02:53;98910.92;;;18.61;64.61
61805;BME280;47725;47.912;7.356;2022-10-24T06:06:53;98913.83;;;18.57;64.86
61805;BME280;47725;47.912;7.356;2022-10-24T06:10:53;98918.02;;;18.52;65.31
61805;BME280;47725;47.912;7.356;2022-10-24T06:14:56;98920.51;;;18.46;65.19
61805;BME280;47725;47.912;7.356;2022-10-24T06:18:53;98922.72;;;18.41;65.16
61805;BME280;47725;47.912;7.356;2022-10-24T06:22:53;98923.07;;;18.35;65.09
61805;BME280;47725;47.912;7.356;2022-10-24T06:26:53;98924.16;;;18.31;64.92
61805;BME280;47725;47.912;7.356;2022-10-24T06:30:53;98927.15;;;18.29;64.83
61805;BME280;47725;47.912;7.356;2022-10-24T06:34:53;98931.28;;;18.27;64.73
61805;BME280;47725;47.912;7.356;2022-10-24T06:38:53;98937.36;;;18.26;64.74
61805;BME280;47725;47.912;7.356;2022-10-24T06:42:52;98942.66;;;18.23;64.84
61805;BME280;47725;47.912;7.356;2022-10-24T06:46:52;98949.62;;;18.23;64.86
61805;BME280;47725;47.912;7.356;2022-10-24T06:50:52;98956.02;;;18.22;65.01
61805;BME280;47725;47.912;7.356;2022-10-24T06:54:53;98960.97;;;18.21;65.03
61805;BME280;47725;47.912;7.356;2022-10-24T06:58:52;98966.71;;;18.22;65.06
61805;BME280;47725;47.912;7.356;2022-10-24T07:02:52;98971.84;;;18.23;64.90
61805;BME280;47725;47.912;7.356;2022-10-24T07:06:52;98976.65;;;18.24;65.19
61805;BME280;47725;47.912;7.356;2022-10-24T07:10:52;98980.06;;;18.23;65.26
61805;BME280;47725;47.912;7.356;2022-10-24T07:14:52;98981.05;;;18.23;65.30
61805;BME280;47725;47.912;7.356;2022-10-24T07:18:52;98978.58;;;18.23;65.31
61805;BME280;47725;47.912;7.356;2022-10-24T07:22:52;98976.42;;;18.24;65.37
61805;BME280;47725;47.912;7.356;2022-10-24T07:26:52;98975.21;;;18.25;65.33
61805;BME280;47725;47.912;7.356;2022-10-24T07:30:52;98977.31;;;18.27;65.40
61805;BME280;47725;47.912;7.356;2022-10-24T07:34:52;98980.95;;;18.27;65.49
61805;BME280;47725;47.912;7.356;2022-10-24T07:38:53;98984.48;;;18.29;65.42
61805;BME280;47725;47.912;7.356;2022-10-24T07:42:52;98992.00;;;18.30;65.76
61805;BME280;47725;47.912;7.356;2022-10-24T07:46:52;99000.59;;;18.25;66.34
61805;BME280;47725;47.912;7.356;2022-10-24T07:50:52;99004.32;;;18.19;66.55
61805;BME280;47725;47.912;7.356;2022-10-24T07:54:52;99006.58;;;18.13;66.62
61805;BME280;47725;47.912;7.356;2022-10-24T07:58:52;99004.96;;;18.08;66.52
61805;BME280;47725;47.912;7.356;2022-10-24T08:02:52;99000.00;;;18.04;66.41
61805;BME280;47725;47.912;7.356;2022-10-24T08:06:52;98994.14;;;18.04;66.24
61805;BME280;47725;47.912;7.356;2022-10-24T08:10:52;98992.52;;;18.04;66.07
61805;BME280;47725;47.912;7.356;2022-10-24T08:14:52;98991.88;;;18.05;66.20
61805;BME280;47725;47.912;7.356;2022-10-24T08:18:54;98993.08;;;18.07;65.98
61805;BME280;47725;47.912;7.356;2022-10-24T08:22:52;98995.81;;;18.12;65.97
61805;BME280;47725;47.912;7.356;2022-10-24T08:26:52;98999.83;;;18.14;66.27
61805;BME280;47725;47.912;7.356;2022-10-24T08:30:56;99005.44;;;18.12;66.88
61805;BME280;47725;47.912;7.356;2022-10-24T08:34:52;99013.57;;;18.06;67.48
61805;BME280;47725;47.912;7.356;2022-10-24T08:38:53;99021.47;;;18.00;67.51
61805;BME280;47725;47.912;7.356;2022-10-24T08:42:52;99030.65;;;17.95;67.52
61805;BME280;47725;47.912;7.356;2022-10-24T08:47:02;99038.53;;;17.92;67.51
61805;BME280;47725;47.912;7.356;2022-10-24T08:50:54;99046.08;;;17.89;67.62
61805;BME280;47725;47.912;7.356;2022-10-24T08:54:53;99052.66;;;17.87;67.60
61805;BME280;47725;47.912;7.356;2022-10-24T08:58:52;99055.95;;;17.87;67.26
61805;BME280;47725;47.912;7.356;2022-10-24T09:03:08;99056.37;;;17.87;67.41
61805;BME280;47725;47.912;7.356;2022-10-24T09:06:52;99057.53;;;17.87;67.52
61805;BME280;47725;47.912;7.356;2022-10-24T09:10:54;99060.74;;;17.87;67.65
61805;BME280;47725;47.912;7.356;2022-10-24T09:14:58;99065.67;;;17.87;67.79
61805;BME280;47725;47.912;7.356;2022-10-24T09:18:53;99071.15;;;17.85;68.13
61805;BME280;47725;47.912;7.356;2022-10-24T09:22:52;99073.13;;;17.83;68.21
61805;BME280;47725;47.912;7.356;2022-10-24T09:26:52;99076.23;;;17.82;68.00
61805;BME280;47725;47.912;7.356;2022-10-24T09:30:52;99081.11;;;17.82;68.17
61805;BME280;47725;47.912;7.356;2022-10-24T09:34:52;99086.19;;;17.81;68.19
61805;BME280;47725;47.912;7.356;2022-10-24T09:38:52;99089.22;;;17.81;68.28
61805;BME280;47725;47.912;7.356;2022-10-24T09:43:13;99092.13;;;17.80;68.55
61805;BME280;47725;47.912;7.356;2022-10-24T09:46:52;99094.73;;;17.78;68.78
61805;BME280;47725;47.912;7.356;2022-10-24T09:50:52;99100.71;;;17.78;69.10
61805;BME280;47725;47.912;7.356;2022-10-24T09:58:52;99114.86;;;17.79;69.13
61805;BME280;47725;47.912;7.356;2022-10-24T10:03:00;99119.38;;;17.82;68.93
61805;BME280;47725;47.912;7.356;2022-10-24T10:06:52;99124.28;;;17.86;68.97
61805;BME280;47725;47.912;7.356;2022-10-24T10:11:00;99129.33;;;17.89;69.01
61805;BME280;47725;47.912;7.356;2022-10-24T10:14:53;99134.01;;;17.93;68.84
61805;BME280;47725;47.912;7.356;2022-10-24T10:19:02;99137.97;;;17.98;68.99
61805;BME280;47725;47.912;7.356;2022-10-24T10:22:52;99143.95;;;18.00;69.21
61805;BME280;47725;47.912;7.356;2022-10-24T10:26:52;99150.61;;;18.03;69.08
61805;BME280;47725;47.912;7.356;2022-10-24T10:30:54;99155.30;;;18.07;68.85
61805;BME280;47725;47.912;7.356;2022-10-24T10:34:55;99161.91;;;18.10;68.86
61805;BME280;47725;47.912;7.356;2022-10-24T10:39:00;99168.24;;;18.11;68.87
61805;BME280;47725;47.912;7.356;2022-10-24T10:43:09;99173.41;;;18.12;68.80
61805;BME280;47725;47.912;7.356;2022-10-24T10:47:03;99174.65;;;18.14;68.73
61805;BME280;47725;47.912;7.356;2022-10-24T10:58:57;99175.66;;;18.21;68.56
61805;BME280;47725;47.912;7.356;2022-10-24T11:07:07;99171.84;;;18.32;67.90
61805;BME280;47725;47.912;7.356;2022-10-24T11:10:53;99168.19;;;18.39;67.52
61805;BME280;47725;47.912;7.356;2022-10-24T11:14:57;99165.03;;;18.45;67.23
61805;BME280;47725;47.912;7.356;2022-10-24T11:18:54;99159.39;;;18.50;67.38
61805;BME280;47725;47.912;7.356;2022-10-24T11:22:54;99154.63;;;18.57;66.64
61805;BME280;47725;47.912;7.356;2022-10-24T11:26:57;99148.91;;;18.63;66.80
61805;BME280;47725;47.912;7.356;2022-10-24T11:34:57;99138.30;;;18.77;66.18
61805;BME280;47725;47.912;7.356;2022-10-24T11:39:04;99134.81;;;18.84;66.14
61805;BME280;47725;47.912;7.356;2022-10-24T11:43:05;99134.07;;;18.90;66.22
61805;BME280;47725;47.912;7.356;2022-10-24T11:46:56;99133.00;;;18.96;66.07
61805;BME280;47725;47.912;7.356;2022-10-24T11:54:54;99129.03;;;19.06;65.77
61805;BME280;47725;47.912;7.356;2022-10-24T11:58:56;99124.68;;;19.09;65.53
61805;BME280;47725;47.912;7.356;2022-10-24T12:02:57;99120.33;;;19.13;65.61
61805;BME280;47725;47.912;7.356;2022-10-24T12:18:56;99110.64;;;19.26;64.09
61805;BME280;47725;47.912;7.356;2022-10-24T12:22:52;99109.06;;;19.28;63.72
61805;BME280;47725;47.912;7.356;2022-10-24T12:26:53;99108.94;;;19.31;63.48
61805;BME280;47725;47.912;7.356;2022-10-24T12:31:17;99107.83;;;19.35;63.27
61805;BME280;47725;47.912;7.356;2022-10-24T12:34:56;99105.36;;;19.37;62.81
61805;BME280;47725;47.912;7.356;2022-10-24T12:46:52;99095.78;;;19.47;62.52
61805;BME280;47725;47.912;7.356;2022-10-24T12:50:56;99092.91;;;19.53;62.41
61805;BME280;47725;47.912;7.356;2022-10-24T12:54:52;99090.66;;;19.61;62.50
61805;BME280;47725;47.912;7.356;2022-10-24T12:59:02;99090.28;;;19.71;62.24
61805;BME280;47725;47.912;7.356;2022-10-24T13:03:02;99089.51;;;19.85;62.23
61805;BME280;47725;47.912;7.356;2022-10-24T13:10:56;99088.95;;;20.12;60.93
61805;BME280;47725;47.912;7.356;2022-10-24T13:15:02;99089.06;;;20.26;60.25
61805;BME280;47725;47.912;7.356;2022-10-24T13:23:01;99084.63;;;20.51;60.23
61805;BME280;47725;47.912;7.356;2022-10-24T13:34:52;99073.39;;;20.79;59.20
61805;BME280;47725;47.912;7.356;2022-10-24T13:38:56;99074.71;;;20.79;59.34
61805;BME280;47725;47.912;7.356;2022-10-24T13:42:53;99078.20;;;20.76;59.81
61805;BME280;47725;47.912;7.356;2022-10-24T13:51:01;99083.97;;;20.63;62.30
61805;BME280;47725;47.912;7.356;2022-10-24T13:58:52;99084.11;;;20.52;62.87
61805;BME280;47725;47.912;7.356;2022-10-24T14:02:52;99084.61;;;20.44;63.50
61805;BME280;47725;47.912;7.356;2022-10-24T14:06:52;99086.60;;;20.36;63.22
61805;BME280;47725;47.912;7.356;2022-10-24T14:10:52;99082.93;;;20.33;63.35
61805;BME280;47725;47.912;7.356;2022-10-24T14:14:52;99088.17;;;20.26;63.20
61805;BME280;47725;47.912;7.356;2022-10-24T14:19:08;99091.67;;;20.18;63.18
61805;BME280;47725;47.912;7.356;2022-10-24T14:22:52;99092.30;;;20.11;63.31
61805;BME280;47725;47.912;7.356;2022-10-24T14:26:52;99086.92;;;20.09;63.66
61805;BME280;47725;47.912;7.356;2022-10-24T14:30:53;99084.55;;;20.08;63.20
61805;BME280;47725;47.912;7.356;2022-10-24T14:34:53;99088.09;;;20.07;63.11
61805;BME280;47725;47.912;7.356;2022-10-24T14:38:52;99093.04;;;20.06;62.62
61805;BME280;47725;47.912;7.356;2022-10-24T14:42:52;99096.03;;;20.03;61.92
61805;BME280;47725;47.912;7.356;2022-10-24T14:47:05;99093.09;;;20.00;62.94
61805;BME280;47725;47.912;7.356;2022-10-24T14:50:52;99091.99;;;19.99;63.23
61805;BME280;47725;47.912;7.356;2022-10-24T14:58:52;99088.43;;;19.93;62.65
61805;BME280;47725;47.912;7.356;2022-10-24T15:02:53;99086.42;;;19.90;62.94
61805;BME280;47725;47.912;7.356;2022-10-24T15:06:53;99087.13;;;19.86;62.39
61805;BME280;47725;47.912;7.356;2022-10-24T15:11:02;99091.10;;;19.80;62.14
61805;BME280;47725;47.912;7.356;2022-10-24T15:14:52;99094.56;;;19.74;61.77
61805;BME280;47725;47.912;7.356;2022-10-24T15:18:53;99093.24;;;19.69;62.26
61805;BME280;47725;47.912;7.356;2022-10-24T15:22:58;99085.44;;;19.65;62.55
61805;BME280;47725;47.912;7.356;2022-10-24T15:26:56;99080.74;;;19.63;62.39
61805;BME280;47725;47.912;7.356;2022-10-24T15:30:52;99077.55;;;19.59;62.10
61805;BME280;47725;47.912;7.356;2022-10-24T15:34:52;99077.75;;;19.53;61.49
61805;BME280;47725;47.912;7.356;2022-10-24T15:38:55;99078.64;;;19.47;61.82
61805;BME280;47725;47.912;7.356;2022-10-24T15:42:52;99080.58;;;19.44;61.93
61805;BME280;47725;47.912;7.356;2022-10-24T15:46:52;99082.70;;;19.41;62.02
61805;BME280;47725;47.912;7.356;2022-10-24T15:50:52;99086.83;;;19.40;61.57
61805;BME280;47725;47.912;7.356;2022-10-24T15:54:52;99092.17;;;19.40;61.66
61805;BME280;47725;47.912;7.356;2022-10-24T15:58:52;99094.90;;;19.40;61.64
61805;BME280;47725;47.912;7.356;2022-10-24T16:02:53;99096.70;;;19.39;61.31
61805;BME280;47725;47.912;7.356;2022-10-24T16:06:52;99097.20;;;19.36;61.35
61805;BME280;47725;47.912;7.356;2022-10-24T16:10:52;99096.33;;;19.33;61.43
61805;BME280;47725;47.912;7.356;2022-10-24T16:14:52;99095.58;;;19.31;61.73
61805;BME280;47725;47.912;7.356;2022-10-24T16:18:52;99097.38;;;19.29;61.52
61805;BME280;47725;47.912;7.356;2022-10-24T16:22:52;99099.06;;;19.25;61.68
61805;BME280;47725;47.912;7.356;2022-10-24T16:26:52;99103.14;;;19.22;61.64
61805;BME280;47725;47.912;7.356;2022-10-24T16:30:52;99106.39;;;19.19;61.87
61805;BME280;47725;47.912;7.356;2022-10-24T16:34:52;99109.93;;;19.15;61.71
61805;BME280;47725;47.912;7.356;2022-10-24T16:38:52;99112.32;;;19.11;61.91
61805;BME280;47725;47.912;7.356;2022-10-24T16:42:52;99115.26;;;19.05;61.64
61805;BME280;47725;47.912;7.356;2022-10-24T16:46:52;99117.67;;;19.00;61.67
61805;BME280;47725;47.912;7.356;2022-10-24T16:50:52;99117.67;;;18.95;61.65
61805;BME280;47725;47.912;7.356;2022-10-24T16:54:52;99116.94;;;18.91;61.57
61805;BME280;47725;47.912;7.356;2022-10-24T16:58:52;99117.25;;;18.87;61.43
61805;BME280;47725;47.912;7.356;2022-10-24T17:02:53;99119.51;;;18.82;61.36
61805;BME280;47725;47.912;7.356;2022-10-24T17:06:52;99122.88;;;18.76;61.61
61805;BME280;47725;47.912;7.356;2022-10-24T17:10:52;99127.84;;;18.71;61.58
61805;BME280;47725;47.912;7.356;2022-10-24T17:14:52;99133.59;;;18.66;61.52
61805;BME280;47725;47.912;7.356;2022-10-24T17:18:52;99138.51;;;18.63;61.60
61805;BME280;47725;47.912;7.356;2022-10-24T17:22:52;99144.29;;;18.60;61.44
61805;BME280;47725;47.912;7.356;2022-10-24T17:26:52;99148.61;;;18.58;61.58
61805;BME280;47725;47.912;7.356;2022-10-24T17:30:52;99152.48;;;18.54;61.23
61805;BME280;47725;47.912;7.356;2022-10-24T17:34:52;99154.63;;;18.49;61.00
61805;BME280;47725;47.912;7.356;2022-10-24T17:42:52;99155.50;;;18.44;61.34
61805;BME280;47725;47.912;7.356;2022-10-24T17:46:52;99157.56;;;18.43;61.28
61805;BME280;47725;47.912;7.356;2022-10-24T17:50:52;99159.44;;;18.41;61.28
61805;BME280;47725;47.912;7.356;2022-10-24T17:54:52;99161.89;;;18.38;61.07
61805;BME280;47725;47.912;7.356;2022-10-24T17:58:52;99167.08;;;18.34;61.17
61805;BME280;47725;47.912;7.356;2022-10-24T18:02:52;99175.35;;;18.29;61.26
61805;BME280;47725;47.912;7.356;2022-10-24T18:06:52;99181.17;;;18.25;61.31
61805;BME280;47725;47.912;7.356;2022-10-24T18:10:52;99186.13;;;18.23;61.49
61805;BME280;47725;47.912;7.356;2022-10-24T18:14:52;99192.13;;;18.22;61.43
61805;BME280;47725;47.912;7.356;2022-10-24T18:18:54;99198.33;;;18.21;61.66
61805;BME280;47725;47.912;7.356;2022-10-24T18:22:52;99206.75;;;18.20;61.74
61805;BME280;47725;47.912;7.356;2022-10-24T18:26:52;99216.92;;;18.19;61.73
61805;BME280;47725;47.912;7.356;2022-10-24T18:30:52;99224.30;;;18.18;61.70
61805;BME280;47725;47.912;7.356;2022-10-24T18:34:52;99229.55;;;18.14;61.82
61805;BME280;47725;47.912;7.356;2022-10-24T18:38:55;99235.46;;;18.10;61.86
61805;BME280;47725;47.912;7.356;2022-10-24T18:43:01;99240.56;;;18.05;61.88
61805;BME280;47725;47.912;7.356;2022-10-24T18:46:53;99244.37;;;18.00;61.66
61805;BME280;47725;47.912;7.356;2022-10-24T18:50:52;99244.97;;;17.94;61.44
61805;BME280;47725;47.912;7.356;2022-10-24T18:55:04;99250.66;;;17.90;61.62
61805;BME280;47725;47.912;7.356;2022-10-24T18:58:52;99264.58;;;17.86;61.67
61805;BME280;47725;47.912;7.356;2022-10-24T19:06:53;99279.33;;;17.84;62.03
61805;BME280;47725;47.912;7.356;2022-10-24T19:10:52;99283.86;;;17.83;62.20
61805;BME280;47725;47.912;7.356;2022-10-24T19:14:52;99289.28;;;17.82;62.72
61805;BME280;47725;47.912;7.356;2022-10-24T19:18:53;99294.35;;;17.81;62.83
61805;BME280;47725;47.912;7.356;2022-10-24T19:22:52;99297.97;;;17.80;62.94
61805;BME280;47725;47.912;7.356;2022-10-24T19:26:52;99299.17;;;17.78;63.02
61805;BME280;47725;47.912;7.356;2022-10-24T19:30:52;99298.35;;;17.74;63.16
61805;BME280;47725;47.912;7.356;2022-10-24T19:34:52;99297.56;;;17.69;63.30
61805;BME280;47725;47.912;7.356;2022-10-24T19:38:55;99296.41;;;17.64;63.48
61805;BME280;47725;47.912;7.356;2022-10-24T19:42:52;99295.37;;;17.58;63.63
61805;BME280;47725;47.912;7.356;2022-10-24T19:46:52;99292.80;;;17.51;63.86
61805;BME280;47725;47.912;7.356;2022-10-24T19:50:52;99290.03;;;17.45;63.76
61805;BME280;47725;47.912;7.356;2022-10-24T19:54:52;99289.14;;;17.38;63.76
61805;BME280;47725;47.912;7.356;2022-10-24T19:58:52;99287.45;;;17.31;63.98
61805;BME280;47725;47.912;7.356;2022-10-24T20:02:52;99285.72;;;17.24;64.00
61805;BME280;47725;47.912;7.356;2022-10-24T20:06:52;99286.24;;;17.18;64.07
61805;BME280;47725;47.912;7.356;2022-10-24T20:10:52;99286.00;;;17.10;64.26
61805;BME280;47725;47.912;7.356;2022-10-24T20:14:52;99285.58;;;17.04;64.40
61805;BME280;47725;47.912;7.356;2022-10-24T20:18:52;99287.66;;;16.97;64.47
61805;BME280;47725;47.912;7.356;2022-10-24T20:22:52;99291.05;;;16.92;64.54
61805;BME280;47725;47.912;7.356;2022-10-24T20:26:52;99295.51;;;16.87;64.54
61805;BME280;47725;47.912;7.356;2022-10-24T20:30:52;99300.11;;;16.83;64.61
61805;BME280;47725;47.912;7.356;2022-10-24T20:34:52;99303.58;;;16.78;64.53
61805;BME280;47725;47.912;7.356;2022-10-24T20:38:52;99307.19;;;16.73;64.61
61805;BME280;47725;47.912;7.356;2022-10-24T20:42:52;99311.10;;;16.68;64.38
61805;BME280;47725;47.912;7.356;2022-10-24T20:46:52;99313.81;;;16.61;64.35
61805;BME280;47725;47.912;7.356;2022-10-24T20:50:52;99318.63;;;16.55;64.43
61805;BME280;47725;47.912;7.356;2022-10-24T20:54:52;99324.95;;;16.49;64.67
61805;BME280;47725;47.912;7.356;2022-10-24T20:58:52;99330.44;;;16.44;64.77
61805;BME280;47725;47.912;7.356;2022-10-24T21:02:52;99335.08;;;16.40;64.81
61805;BME280;47725;47.912;7.356;2022-10-24T21:06:51;99337.65;;;16.35;64.82
61805;BME280;47725;47.912;7.356;2022-10-24T21:10:51;99342.77;;;16.32;64.84
61805;BME280;47725;47.912;7.356;2022-10-24T21:14:51;99348.19;;;16.27;65.01
61805;BME280;47725;47.912;7.356;2022-10-24T21:18:51;99353.87;;;16.23;65.00
61805;BME280;47725;47.912;7.356;2022-10-24T21:22:51;99359.53;;;16.19;64.95
61805;BME280;47725;47.912;7.356;2022-10-24T21:26:51;99365.04;;;16.16;64.93
61805;BME280;47725;47.912;7.356;2022-10-24T21:30:51;99371.20;;;16.11;64.91
61805;BME280;47725;47.912;7.356;2022-10-24T21:34:51;99377.06;;;16.06;65.01
61805;BME280;47725;47.912;7.356;2022-10-24T21:38:53;99382.37;;;16.00;65.22
61805;BME280;47725;47.912;7.356;2022-10-24T21:42:51;99386.49;;;15.94;65.35
61805;BME280;47725;47.912;7.356;2022-10-24T21:46:51;99389.92;;;15.88;65.40
61805;BME280;47725;47.912;7.356;2022-10-24T21:50:51;99393.97;;;15.83;65.48
61805;BME280;47725;47.912;7.356;2022-10-24T21:54:51;99398.05;;;15.79;65.61
61805;BME280;47725;47.912;7.356;2022-10-24T21:58:55;99401.03;;;15.76;65.74
61805;BME280;47725;47.912;7.356;2022-10-24T22:02:51;99405.27;;;15.72;65.83
61805;BME280;47725;47.912;7.356;2022-10-24T22:06:51;99409.81;;;15.68;66.01
61805;BME280;47725;47.912;7.356;2022-10-24T22:10:58;99414.72;;;15.64;65.93
61805;BME280;47725;47.912;7.356;2022-10-24T22:14:51;99418.66;;;15.61;66.00
61805;BME280;47725;47.912;7.356;2022-10-24T22:18:52;99422.30;;;15.58;65.96
61805;BME280;47725;47.912;7.356;2022-10-24T22:22:51;99426.36;;;15.55;65.96
61805;BME280;47725;47.912;7.356;2022-10-24T22:26:51;99430.60;;;15.51;66.11
61805;BME280;47725;47.912;7.356;2022-10-24T22:30:52;99435.72;;;15.48;65.99
61805;BME280;47725;47.912;7.356;2022-10-24T22:34:52;99440.72;;;15.44;66.11
61805;BME280;47725;47.912;7.356;2022-10-24T22:38:52;99446.91;;;15.42;66.22
61805;BME280;47725;47.912;7.356;2022-10-24T22:42:52;99450.79;;;15.37;66.50
61805;BME280;47725;47.912;7.356;2022-10-24T22:47:01;99453.92;;;15.32;66.40
61805;BME280;47725;47.912;7.356;2022-10-24T22:50:52;99457.44;;;15.29;66.33
61805;BME280;47725;47.912;7.356;2022-10-24T22:54:52;99460.06;;;15.25;66.47